Time;durP1;ratioP1;P1;durP2;ratioP2;P2;SDS_P1;SDS_P2;PMS_P1;PMS_P2;Temp;Humidity;BMP_temperature;BMP_pressure;BME280_temperature;BME280_humidity;BME280_pressure;Samples;Min_cycle;Max_cycle;Signal;HPM_P1;HPM_P2
2023/01/29 00:01:37;;;;;;;52.40;24.70;;;;;;;;;;5044118;28;20474;-44
2023/01/29 00:04:03;;;;;;;46.70;24.97;;;;;;;;;;5043645;28;20414;-44
2023/01/29 00:06:29;;;;;;;46.67;25.10;;;;;;;;;;5045132;28;20446;-45
2023/01/29 00:08:55;;;;;;;41.30;23.15;;;;;;;;;;5042707;28;20175;-44
2023/01/29 00:11:22;;;;;;;44.42;23.13;;;;;;;;;;5046391;28;20182;-45
2023/01/29 00:13:49;;;;;;;49.50;21.75;;;;;;;;;;5048665;28;20178;-45
2023/01/29 00:16:15;;;;;;;44.08;22.92;;;;;;;;;;5045175;28;20206;-45
2023/01/29 00:18:41;;;;;;;45.05;23.98;;;;;;;;;;5043563;28;20665;-46
2023/01/29 00:21:14;;;;;;;52.65;23.65;;;;;;;;;;5043827;28;20264;-45
2023/01/29 00:23:40;;;;;;;52.95;23.83;;;;;;;;;;5043654;28;20186;-44
2023/01/29 00:26:06;;;;;;;50.30;24.40;;;;;;;;;;5043429;28;20195;-45
2023/01/29 00:28:33;;;;;;;51.15;24.90;;;;;;;;;;5044288;28;20290;-44
2023/01/29 00:30:59;;;;;;;48.75;23.92;;;;;;;;;;5048285;28;20187;-45
2023/01/29 00:33:24;;;;;;;49.93;24.73;;;;;;;;;;5046347;28;20179;-44
2023/01/29 00:35:50;;;;;;;62.07;23.83;;;;;;;;;;5041596;28;20875;-44
2023/01/29 00:38:16;;;;;;;49.33;24.63;;;;;;;;;;5045331;28;20787;-44
2023/01/29 00:46:11;;;;;;;44.47;24.52;;;;;;;;;;5041074;28;20579;-46
2023/01/29 00:48:37;;;;;;;51.70;24.33;;;;;;;;;;5043335;28;20207;-44
2023/01/29 00:51:03;;;;;;;48.70;23.63;;;;;;;;;;5043377;28;20402;-44
2023/01/29 00:53:29;;;;;;;50.72;25.15;;;;;;;;;;5051525;28;20402;-46
2023/01/29 00:55:55;;;;;;;46.50;24.47;;;;;;;;;;5048803;28;20195;-45
2023/01/29 00:58:27;;;;;;;37.97;23.27;;;;;;;;;;5045400;28;20422;-45
2023/01/29 01:00:53;;;;;;;55.70;25.95;;;;;;;;;;5043176;28;20412;-45
2023/01/29 01:03:18;;;;;;;50.35;26.17;;;;;;;;;;5043476;28;20265;-45
2023/01/29 01:05:44;;;;;;;45.47;24.77;;;;;;;;;;5042775;28;20203;-44
2023/01/29 01:11:03;;;;;;;46.15;23.48;;;;;;;;;;5043045;28;20913;-44
2023/01/29 01:13:31;;;;;;;45.03;24.17;;;;;;;;;;5044337;28;20262;-44
2023/01/29 01:15:57;;;;;;;42.83;22.08;;;;;;;;;;5048063;28;20696;-44
2023/01/29 01:18:23;;;;;;;45.42;23.58;;;;;;;;;;5045786;28;20214;-45
2023/01/29 01:20:50;;;;;;;54.70;26.53;;;;;;;;;;5041543;28;20186;-45
2023/01/29 01:23:17;;;;;;;55.17;24.90;;;;;;;;;;5044494;28;20932;-46
2023/01/29 01:25:43;;;;;;;48.95;23.45;;;;;;;;;;5042904;28;20210;-44
2023/01/29 01:28:09;;;;;;;61.13;26.73;;;;;;;;;;5042866;28;20202;-45
2023/01/29 01:30:35;;;;;;;58.58;25.27;;;;;;;;;;5043272;28;20436;-45
2023/01/29 01:33:01;;;;;;;56.45;25.35;;;;;;;;;;5047562;28;20183;-45
2023/01/29 01:35:28;;;;;;;57.40;26.53;;;;;;;;;;5039222;28;20196;-44
2023/01/29 01:37:54;;;;;;;55.92;25.08;;;;;;;;;;5047446;28;20413;-44
2023/01/29 01:40:21;;;;;;;50.03;23.10;;;;;;;;;;5045116;28;20178;-45
2023/01/29 01:42:48;;;;;;;52.20;24.23;;;;;;;;;;5042814;28;20412;-44
2023/01/29 01:45:19;;;;;;;52.08;23.73;;;;;;;;;;5042482;28;20234;-45
2023/01/29 01:48:11;;;;;;;46.72;22.52;;;;;;;;;;5042838;28;20568;-45
2023/01/29 01:50:56;;;;;;;52.50;24.05;;;;;;;;;;5038236;28;20213;-45
2023/01/29 01:53:26;;;;;;;52.95;25.60;;;;;;;;;;5040249;28;20185;-44
2023/01/29 01:55:55;;;;;;;59.88;25.55;;;;;;;;;;5049490;28;20195;-45
2023/01/29 01:58:24;;;;;;;52.70;25.85;;;;;;;;;;5044955;28;20227;-44
2023/01/29 02:00:50;;;;;;;54.03;25.30;;;;;;;;;;5048420;28;20190;-45
2023/01/29 02:11:31;;;;;;;49.08;24.50;;;;;;;;;;5046417;28;20665;-45
2023/01/29 02:13:57;;;;;;;60.97;26.75;;;;;;;;;;5042326;28;20171;-44
2023/01/29 02:16:23;;;;;;;71.97;29.23;;;;;;;;;;5042422;28;20202;-45
2023/01/29 02:18:49;;;;;;;50.45;24.15;;;;;;;;;;5045562;28;20228;-45
2023/01/29 02:21:23;;;;;;;54.30;24.92;;;;;;;;;;5045984;28;20541;-44
2023/01/29 02:23:55;;;;;;;59.58;27.23;;;;;;;;;;5045845;28;20188;-45
2023/01/29 02:26:27;;;;;;;47.92;22.33;;;;;;;;;;5048078;28;20693;-45
2023/01/29 02:29:24;;;;;;;56.25;24.80;;;;;;;;;;5050592;28;20788;-44
2023/01/29 02:32:10;;;;;;;57.30;26.45;;;;;;;;;;5029025;28;20191;-44
2023/01/29 02:37:25;;;;;;;47.40;23.80;;;;;;;;;;5042413;28;20194;-44
2023/01/29 02:40:04;;;;;;;58.47;25.30;;;;;;;;;;5050420;28;20179;-44
2023/01/29 02:42:37;;;;;;;52.97;23.38;;;;;;;;;;5049268;28;20543;-44
2023/01/29 02:45:10;;;;;;;62.55;25.00;;;;;;;;;;5041950;28;20200;-44
2023/01/29 02:47:41;;;;;;;50.05;24.63;;;;;;;;;;5050038;28;20191;-44
2023/01/29 02:50:14;;;;;;;60.63;26.02;;;;;;;;;;5046466;28;20202;-44
2023/01/29 02:52:48;;;;;;;74.55;28.23;;;;;;;;;;5045392;28;20167;-43
2023/01/29 02:55:26;;;;;;;52.75;23.67;;;;;;;;;;5046322;28;20563;-45
2023/01/29 02:57:55;;;;;;;61.85;27.30;;;;;;;;;;5045287;28;20206;-45
2023/01/29 03:00:23;;;;;;;57.20;26.42;;;;;;;;;;5045246;28;20232;-44
2023/01/29 03:03:08;;;;;;;63.83;27.50;;;;;;;;;;5045220;28;20206;-44
2023/01/29 03:05:42;;;;;;;51.53;22.80;;;;;;;;;;5045757;28;20277;-44
2023/01/29 03:08:09;;;;;;;74.07;30.20;;;;;;;;;;5053352;28;20705;-44
2023/01/29 03:11:01;;;;;;;53.83;25.45;;;;;;;;;;5053442;28;20171;-45
2023/01/29 03:13:34;;;;;;;63.17;26.73;;;;;;;;;;5038893;28;20211;-44
2023/01/29 03:16:06;;;;;;;50.25;27.20;;;;;;;;;;5049440;28;20191;-44
2023/01/29 03:18:39;;;;;;;62.55;27.30;;;;;;;;;;5049060;28;20198;-44
2023/01/29 03:21:49;;;;;;;62.50;26.33;;;;;;;;;;5045154;28;20250;-44
2023/01/29 03:32:09;;;;;;;72.80;29.83;;;;;;;;;;5045535;28;20222;-45
2023/01/29 03:34:47;;;;;;;57.08;25.52;;;;;;;;;;5044192;28;20653;-44
2023/01/29 03:37:18;;;;;;;69.18;28.67;;;;;;;;;;5043904;28;20182;-44
2023/01/29 03:39:44;;;;;;;65.85;27.27;;;;;;;;;;5043946;28;20203;-43
2023/01/29 03:42:10;;;;;;;60.40;26.50;;;;;;;;;;5051344;28;20185;-43
2023/01/29 03:44:41;;;;;;;60.50;28.20;;;;;;;;;;5052138;28;20175;-44
2023/01/29 03:47:19;;;;;;;71.97;27.83;;;;;;;;;;5052605;28;21022;-45
2023/01/29 03:49:51;;;;;;;70.18;27.25;;;;;;;;;;5052922;28;20296;-44
2023/01/29 03:52:25;;;;;;;66.93;29.08;;;;;;;;;;5052634;28;20163;-44
2023/01/29 03:55:05;;;;;;;68.68;31.30;;;;;;;;;;5052419;28;20175;-43
2023/01/29 03:57:34;;;;;;;68.85;31.55;;;;;;;;;;5052477;28;20651;-44
2023/01/29 04:00:09;;;;;;;69.20;28.92;;;;;;;;;;5052700;28;20175;-44
2023/01/29 04:02:42;;;;;;;62.00;26.40;;;;;;;;;;5052585;28;20166;-44
2023/01/29 04:05:14;;;;;;;65.32;27.55;;;;;;;;;;5052337;28;20539;-44
2023/01/29 04:07:42;;;;;;;62.53;27.70;;;;;;;;;;5052397;28;20195;-44
2023/01/29 04:10:11;;;;;;;65.50;27.88;;;;;;;;;;5052353;28;20201;-45
2023/01/29 04:12:46;;;;;;;66.53;30.77;;;;;;;;;;5052380;28;20163;-45
2023/01/29 04:15:14;;;;;;;65.60;29.00;;;;;;;;;;5052125;28;20269;-44
2023/01/29 04:17:42;;;;;;;82.53;30.20;;;;;;;;;;5052389;28;20171;-45
2023/01/29 04:20:09;;;;;;;65.07;27.75;;;;;;;;;;5052331;28;20571;-44
2023/01/29 04:22:37;;;;;;;68.97;31.15;;;;;;;;;;5052139;28;20182;-44
2023/01/29 04:25:07;;;;;;;67.97;29.45;;;;;;;;;;5052016;28;20206;-46
2023/01/29 04:27:43;;;;;;;63.67;27.30;;;;;;;;;;5052159;28;20194;-44
2023/01/29 04:30:16;;;;;;;74.57;28.95;;;;;;;;;;5052244;28;20257;-45
2023/01/29 04:32:46;;;;;;;58.53;26.50;;;;;;;;;;5051976;28;20627;-45
2023/01/29 04:35:18;;;;;;;64.75;30.98;;;;;;;;;;5051985;28;20237;-45
2023/01/29 04:37:52;;;;;;;68.38;30.20;;;;;;;;;;5052017;28;20660;-44
2023/01/29 04:40:30;;;;;;;63.80;29.50;;;;;;;;;;5051780;28;20175;-44
2023/01/29 04:43:03;;;;;;;62.53;28.40;;;;;;;;;;5051856;28;20190;-44
2023/01/29 04:45:32;;;;;;;68.82;29.25;;;;;;;;;;5051622;28;20297;-44
2023/01/29 04:48:11;;;;;;;69.20;28.83;;;;;;;;;;5051774;28;20213;-46
2023/01/29 04:50:39;;;;;;;58.40;26.38;;;;;;;;;;5051905;28;20212;-45
2023/01/29 04:53:23;;;;;;;62.58;27.73;;;;;;;;;;5051713;28;20159;-44
2023/01/29 04:55:57;;;;;;;64.65;27.88;;;;;;;;;;5051225;28;20277;-45
2023/01/29 04:58:39;;;;;;;74.47;28.75;;;;;;;;;;5051891;28;20610;-44
2023/01/29 05:01:07;;;;;;;68.72;26.50;;;;;;;;;;5051798;28;20174;-45
2023/01/29 05:03:33;;;;;;;69.28;28.90;;;;;;;;;;5051609;28;20545;-45
2023/01/29 05:06:00;;;;;;;58.25;27.50;;;;;;;;;;5051290;28;20533;-44
2023/01/29 05:08:27;;;;;;;63.88;28.40;;;;;;;;;;5051079;28;20228;-44
2023/01/29 05:10:55;;;;;;;71.57;31.13;;;;;;;;;;5049759;28;20315;-45
2023/01/29 05:13:21;;;;;;;74.88;26.25;;;;;;;;;;5050091;28;20206;-46
2023/01/29 05:15:49;;;;;;;56.03;27.73;;;;;;;;;;5049672;28;20187;-44
2023/01/29 05:18:15;;;;;;;65.22;26.73;;;;;;;;;;5050296;28;20252;-44
2023/01/29 05:20:42;;;;;;;63.38;27.90;;;;;;;;;;5051555;28;20292;-44
2023/01/29 05:23:15;;;;;;;60.30;27.83;;;;;;;;;;5051523;28;20628;-44
2023/01/29 05:25:41;;;;;;;64.70;26.38;;;;;;;;;;5051133;28;20182;-45
2023/01/29 05:28:17;;;;;;;50.20;25.52;;;;;;;;;;5051406;28;20202;-45
2023/01/29 05:30:53;;;;;;;54.20;24.30;;;;;;;;;;5051598;28;20166;-44
2023/01/29 05:33:22;;;;;;;61.47;26.60;;;;;;;;;;5051849;28;20578;-45
2023/01/29 05:35:48;;;;;;;59.22;27.58;;;;;;;;;;5051131;28;20298;-44
2023/01/29 05:38:14;;;;;;;61.88;26.38;;;;;;;;;;5051904;28;20167;-45
2023/01/29 05:40:40;;;;;;;61.08;24.40;;;;;;;;;;5051339;28;20332;-45
2023/01/29 05:43:13;;;;;;;56.80;26.20;;;;;;;;;;5051376;28;20258;-44
2023/01/29 05:45:39;;;;;;;57.50;26.75;;;;;;;;;;5051065;28;20433;-45
2023/01/29 05:48:05;;;;;;;56.97;25.00;;;;;;;;;;5051223;28;20190;-43
2023/01/29 05:50:31;;;;;;;59.23;26.63;;;;;;;;;;5051401;28;20398;-45
2023/01/29 05:52:58;;;;;;;56.13;25.73;;;;;;;;;;5052869;28;20405;-44
2023/01/29 05:55:24;;;;;;;65.53;25.90;;;;;;;;;;5054701;28;20453;-43
2023/01/29 05:57:50;;;;;;;63.63;26.37;;;;;;;;;;5055009;28;20640;-45
2023/01/29 06:00:16;;;;;;;51.23;22.87;;;;;;;;;;5055163;28;20807;-44
2023/01/29 06:02:42;;;;;;;62.72;25.45;;;;;;;;;;5054988;28;20408;-46
2023/01/29 06:05:08;;;;;;;55.17;26.40;;;;;;;;;;5054672;28;20270;-44
2023/01/29 06:07:34;;;;;;;62.15;24.20;;;;;;;;;;5054602;28;20456;-44
2023/01/29 06:10:00;;;;;;;56.15;25.90;;;;;;;;;;5054856;28;20642;-45
2023/01/29 06:12:27;;;;;;;48.30;23.23;;;;;;;;;;5054814;28;20221;-45
2023/01/29 06:14:53;;;;;;;57.13;25.77;;;;;;;;;;5054476;28;20492;-45
2023/01/29 06:17:19;;;;;;;49.67;23.77;;;;;;;;;;5055109;28;20202;-45
2023/01/29 06:19:45;;;;;;;52.93;24.00;;;;;;;;;;5054244;28;20417;-45
2023/01/29 06:22:11;;;;;;;52.07;22.20;;;;;;;;;;5054646;28;20432;-44
2023/01/29 06:24:37;;;;;;;51.10;24.40;;;;;;;;;;5054092;28;20500;-44
2023/01/29 06:27:03;;;;;;;45.47;21.33;;;;;;;;;;5054584;28;20806;-45
2023/01/29 06:29:28;;;;;;;47.55;22.73;;;;;;;;;;5054530;28;20186;-44
2023/01/29 06:31:54;;;;;;;48.10;22.30;;;;;;;;;;5054469;28;20168;-44
2023/01/29 06:34:20;;;;;;;53.13;21.83;;;;;;;;;;5053594;28;20402;-43
2023/01/29 06:36:46;;;;;;;57.23;24.53;;;;;;;;;;5053873;28;20467;-44
2023/01/29 06:39:12;;;;;;;49.50;23.23;;;;;;;;;;5054038;28;20438;-45
2023/01/29 06:41:38;;;;;;;48.42;23.10;;;;;;;;;;5054285;28;20397;-44
2023/01/29 06:44:04;;;;;;;45.77;21.63;;;;;;;;;;5054022;28;20582;-45
2023/01/29 06:46:31;;;;;;;54.83;23.60;;;;;;;;;;5053963;28;20421;-44
2023/01/29 06:48:59;;;;;;;52.65;24.65;;;;;;;;;;5053775;28;20199;-45
2023/01/29 06:51:25;;;;;;;55.55;24.35;;;;;;;;;;5054002;28;20205;-44
2023/01/29 06:53:53;;;;;;;49.75;19.63;;;;;;;;;;5053811;28;20250;-45
2023/01/29 06:56:19;;;;;;;54.88;21.30;;;;;;;;;;5053571;28;20183;-46
2023/01/29 06:58:45;;;;;;;53.67;21.53;;;;;;;;;;5051667;28;20194;-45
2023/01/29 07:01:11;;;;;;;56.00;23.10;;;;;;;;;;5045192;28;20485;-45
2023/01/29 07:03:38;;;;;;;56.67;23.50;;;;;;;;;;5050066;28;20429;-45
2023/01/29 07:06:05;;;;;;;54.22;22.92;;;;;;;;;;5041584;28;20230;-44
2023/01/29 07:08:31;;;;;;;52.25;22.80;;;;;;;;;;5043520;28;20245;-45
2023/01/29 07:11:00;;;;;;;48.70;20.70;;;;;;;;;;5049988;28;20214;-43
2023/01/29 07:13:27;;;;;;;48.58;20.88;;;;;;;;;;5048195;28;20497;-45
2023/01/29 07:15:53;;;;;;;55.90;24.67;;;;;;;;;;5046967;28;20218;-45
2023/01/29 07:18:19;;;;;;;50.80;22.73;;;;;;;;;;5045030;28;20581;-45
2023/01/29 07:20:45;;;;;;;54.92;24.02;;;;;;;;;;5044918;28;20411;-44
2023/01/29 07:23:12;;;;;;;52.77;23.87;;;;;;;;;;5045121;28;20679;-44
2023/01/29 07:25:38;;;;;;;44.70;20.50;;;;;;;;;;5044660;28;20446;-46
2023/01/29 07:28:04;;;;;;;49.13;22.50;;;;;;;;;;5049487;28;20242;-45
2023/01/29 07:30:30;;;;;;;48.10;22.80;;;;;;;;;;5048172;28;20262;-45
2023/01/29 07:33:01;;;;;;;50.33;23.23;;;;;;;;;;5044716;28;20162;-45
2023/01/29 07:35:27;;;;;;;53.45;23.27;;;;;;;;;;5044554;28;20187;-45
2023/01/29 07:37:52;;;;;;;47.75;23.23;;;;;;;;;;5044584;28;20181;-45
2023/01/29 07:40:19;;;;;;;56.70;23.57;;;;;;;;;;5044601;28;20669;-45
2023/01/29 07:42:45;;;;;;;55.67;24.90;;;;;;;;;;5044838;28;20414;-45
2023/01/29 07:45:11;;;;;;;44.10;21.65;;;;;;;;;;5047809;28;20210;-45
2023/01/29 07:47:37;;;;;;;46.65;21.15;;;;;;;;;;5048997;28;20571;-45
2023/01/29 07:50:04;;;;;;;44.87;21.87;;;;;;;;;;5040908;28;20171;-45
2023/01/29 07:52:31;;;;;;;49.38;22.10;;;;;;;;;;5047320;28;20733;-44
2023/01/29 07:54:57;;;;;;;41.00;21.33;;;;;;;;;;5043515;28;20202;-44
2023/01/29 07:57:23;;;;;;;51.63;24.45;;;;;;;;;;5043656;28;20261;-44
2023/01/29 07:59:49;;;;;;;48.40;22.00;;;;;;;;;;5043566;28;20203;-44
2023/01/29 08:02:15;;;;;;;52.83;24.63;;;;;;;;;;5047101;28;20202;-44
2023/01/29 08:04:41;;;;;;;48.60;20.75;;;;;;;;;;5048182;28;20905;-44
2023/01/29 08:07:08;;;;;;;44.33;20.70;;;;;;;;;;5047942;28;20207;-45
2023/01/29 08:09:34;;;;;;;44.85;22.10;;;;;;;;;;5047493;28;20508;-44
2023/01/29 08:12:00;;;;;;;50.20;22.02;;;;;;;;;;5043451;28;20167;-45
2023/01/29 08:14:26;;;;;;;44.95;20.45;;;;;;;;;;5046044;28;20167;-45
2023/01/29 08:16:52;;;;;;;49.65;21.10;;;;;;;;;;5042873;28;20200;-44
2023/01/29 08:19:18;;;;;;;49.97;21.60;;;;;;;;;;5043677;28;20701;-44
2023/01/29 08:21:44;;;;;;;61.10;23.73;;;;;;;;;;5043739;28;20410;-44
2023/01/29 08:24:10;;;;;;;49.03;22.60;;;;;;;;;;5047425;28;20414;-45
2023/01/29 08:26:36;;;;;;;43.70;20.97;;;;;;;;;;5048634;28;20515;-45
2023/01/29 08:29:02;;;;;;;50.37;22.97;;;;;;;;;;5043561;28;20465;-46
2023/01/29 08:31:28;;;;;;;53.05;22.48;;;;;;;;;;5043733;28;20410;-45
2023/01/29 08:33:54;;;;;;;49.47;21.83;;;;;;;;;;5044023;28;20166;-46
2023/01/29 08:36:20;;;;;;;45.08;21.75;;;;;;;;;;5043299;28;20765;-44
2023/01/29 08:38:46;;;;;;;47.75;22.00;;;;;;;;;;5043637;28;20187;-45
2023/01/29 08:41:12;;;;;;;44.13;21.33;;;;;;;;;;5047078;28;20187;-44
2023/01/29 08:43:39;;;;;;;50.10;23.60;;;;;;;;;;5047654;28;20500;-44
2023/01/29 08:46:05;;;;;;;50.33;21.98;;;;;;;;;;5039889;28;20430;-45
2023/01/29 08:48:31;;;;;;;46.38;21.25;;;;;;;;;;5047230;28;20203;-44
2023/01/29 08:50:58;;;;;;;51.50;22.20;;;;;;;;;;5043331;28;20163;-44
2023/01/29 08:53:24;;;;;;;52.05;22.58;;;;;;;;;;5043339;28;20171;-46
2023/01/29 08:55:51;;;;;;;52.22;23.58;;;;;;;;;;5049955;28;20213;-46
2023/01/29 08:58:17;;;;;;;51.58;22.35;;;;;;;;;;5046175;28;20191;-46
2023/01/29 09:00:43;;;;;;;55.50;24.33;;;;;;;;;;5040456;28;20191;-45
2023/01/29 09:03:09;;;;;;;51.17;23.43;;;;;;;;;;5049916;28;20769;-45
2023/01/29 09:05:35;;;;;;;44.73;23.10;;;;;;;;;;5050893;28;20530;-44
2023/01/29 09:08:01;;;;;;;43.90;20.63;;;;;;;;;;5042924;28;20453;-45
2023/01/29 09:10:27;;;;;;;49.63;22.80;;;;;;;;;;5046178;28;20189;-45
2023/01/29 09:12:53;;;;;;;53.13;22.97;;;;;;;;;;5042688;28;20418;-45
2023/01/29 09:15:19;;;;;;;49.57;22.70;;;;;;;;;;5045319;28;20441;-44
2023/01/29 09:17:45;;;;;;;53.47;25.67;;;;;;;;;;5040650;28;20475;-44
2023/01/29 09:20:11;;;;;;;49.40;22.90;;;;;;;;;;5046647;28;20420;-44
2023/01/29 09:22:37;;;;;;;54.33;23.52;;;;;;;;;;5047457;28;20266;-43
2023/01/29 09:25:03;;;;;;;51.77;25.90;;;;;;;;;;5042307;28;20306;-44
2023/01/29 09:27:29;;;;;;;42.25;22.65;;;;;;;;;;5045718;28;20453;-44
2023/01/29 09:29:55;;;;;;;58.93;24.13;;;;;;;;;;5044620;28;20181;-45
2023/01/29 09:32:21;;;;;;;47.53;22.90;;;;;;;;;;5042538;28;20409;-45
2023/01/29 09:34:47;;;;;;;52.03;25.80;;;;;;;;;;5046402;28;20911;-46
2023/01/29 09:37:14;;;;;;;49.77;23.60;;;;;;;;;;5050367;28;20429;-44
2023/01/29 09:39:40;;;;;;;47.33;23.02;;;;;;;;;;5051246;28;20406;-43
2023/01/29 09:42:13;;;;;;;49.83;22.67;;;;;;;;;;5055127;28;20171;-45
2023/01/29 09:44:45;;;;;;;48.63;21.85;;;;;;;;;;5054738;28;20492;-44
2023/01/29 09:47:12;;;;;;;42.10;21.20;;;;;;;;;;5054677;28;20560;-44
2023/01/29 09:50:01;;;;;;;48.78;23.92;;;;;;;;;;5054676;28;20167;-44
2023/01/29 09:52:29;;;;;;;49.10;23.50;;;;;;;;;;5008480;28;20179;-44
2023/01/29 09:55:01;;;;;;;41.10;21.60;;;;;;;;;;5054363;28;20694;-45
2023/01/29 09:57:53;;;;;;;49.25;21.55;;;;;;;;;;5054736;28;20194;-45
2023/01/29 10:00:31;;;;;;;42.50;20.20;;;;;;;;;;5048845;28;20278;-44
2023/01/29 10:03:21;;;;;;;45.47;22.48;;;;;;;;;;5053500;28;20192;-45
2023/01/29 10:06:05;;;;;;;48.88;22.13;;;;;;;;;;5054296;28;20202;-45
2023/01/29 10:08:44;;;;;;;41.97;21.35;;;;;;;;;;5053642;28;20653;-44
2023/01/29 10:11:19;;;;;;;47.08;21.35;;;;;;;;;;5054477;28;20736;-44
2023/01/29 10:13:50;;;;;;;43.58;21.35;;;;;;;;;;5054357;28;20173;-45
2023/01/29 10:16:31;;;;;;;41.75;21.95;;;;;;;;;;5053867;28;20195;-46
2023/01/29 10:19:00;;;;;;;46.40;23.08;;;;;;;;;;5054087;28;20181;-45
2023/01/29 10:21:45;;;;;;;47.28;19.45;;;;;;;;;;5054232;28;20197;-45
2023/01/29 10:24:46;;;;;;;44.35;20.92;;;;;;;;;;5052743;28;20210;-46
2023/01/29 10:27:14;;;;;;;45.63;21.23;;;;;;;;;;4992156;28;20282;-44
2023/01/29 10:29:41;;;;;;;52.13;22.50;;;;;;;;;;5042645;28;20191;-44
2023/01/29 10:32:11;;;;;;;47.13;22.27;;;;;;;;;;5053763;28;20163;-45
2023/01/29 10:34:49;;;;;;;47.53;22.45;;;;;;;;;;5053746;28;20170;-45
2023/01/29 10:37:17;;;;;;;49.50;22.08;;;;;;;;;;5054095;28;20645;-44
2023/01/29 10:39:43;;;;;;;46.13;22.40;;;;;;;;;;5052914;28;20700;-43
2023/01/29 10:42:16;;;;;;;42.20;21.95;;;;;;;;;;5053940;28;20201;-44
2023/01/29 10:44:47;;;;;;;44.83;21.92;;;;;;;;;;5055685;28;20197;-43
2023/01/29 10:47:32;;;;;;;48.35;21.77;;;;;;;;;;5053905;28;20195;-43
2023/01/29 10:49:58;;;;;;;44.70;21.60;;;;;;;;;;5053671;28;20170;-41
2023/01/29 10:52:43;;;;;;;45.03;20.67;;;;;;;;;;5053579;28;20178;-41
2023/01/29 10:55:21;;;;;;;49.63;20.33;;;;;;;;;;5053668;28;20417;-43
2023/01/29 10:57:47;;;;;;;50.58;22.00;;;;;;;;;;5053113;28;20187;-43
2023/01/29 11:00:21;;;;;;;40.97;20.07;;;;;;;;;;5053737;28;20175;-43
2023/01/29 11:02:48;;;;;;;51.00;23.92;;;;;;;;;;5053398;28;20411;-45
2023/01/29 11:05:17;;;;;;;48.63;21.90;;;;;;;;;;5053524;28;20217;-44
2023/01/29 11:07:43;;;;;;;43.22;20.15;;;;;;;;;;5049027;28;20210;-46
2023/01/29 11:10:16;;;;;;;47.95;22.13;;;;;;;;;;5043881;28;20599;-44
2023/01/29 11:12:43;;;;;;;50.78;23.52;;;;;;;;;;5052054;28;20595;-44
2023/01/29 11:15:15;;;;;;;52.22;22.75;;;;;;;;;;5048825;28;20191;-44
2023/01/29 11:18:00;;;;;;;52.15;22.10;;;;;;;;;;5050166;28;20179;-46
2023/01/29 11:20:28;;;;;;;43.78;19.00;;;;;;;;;;5041444;28;20543;-40
2023/01/29 11:22:58;;;;;;;49.15;20.90;;;;;;;;;;5049295;28;20240;-40
2023/01/29 11:25:24;;;;;;;42.35;20.83;;;;;;;;;;5047413;28;20222;-41
2023/01/29 11:27:52;;;;;;;48.03;21.43;;;;;;;;;;5044788;28;20567;-48
2023/01/29 11:30:18;;;;;;;41.67;21.63;;;;;;;;;;5044664;28;20467;-45
2023/01/29 11:32:49;;;;;;;43.78;21.65;;;;;;;;;;5044459;28;20190;-46
2023/01/29 11:35:15;;;;;;;44.00;21.10;;;;;;;;;;5044454;28;20269;-43
2023/01/29 11:37:45;;;;;;;44.90;21.87;;;;;;;;;;5044193;28;20203;-42
2023/01/29 11:40:23;;;;;;;44.53;20.50;;;;;;;;;;5048438;28;20811;-43
2023/01/29 11:42:53;;;;;;;47.17;23.38;;;;;;;;;;5049198;28;20547;-43
2023/01/29 11:45:26;;;;;;;48.00;20.42;;;;;;;;;;5046099;28;20579;-44
2023/01/29 11:47:53;;;;;;;49.72;21.75;;;;;;;;;;5042082;28;20274;-43
2023/01/29 11:50:21;;;;;;;39.42;19.50;;;;;;;;;;5045756;28;20252;-43
2023/01/29 11:52:47;;;;;;;45.40;22.33;;;;;;;;;;5044386;28;20677;-42
2023/01/29 11:55:13;;;;;;;47.65;22.88;;;;;;;;;;5044958;28;20226;-43
2023/01/29 11:57:43;;;;;;;46.90;21.80;;;;;;;;;;5044161;28;20344;-43
2023/01/29 12:00:18;;;;;;;42.58;20.40;;;;;;;;;;5048052;28;20414;-45
2023/01/29 12:02:50;;;;;;;46.58;21.38;;;;;;;;;;5023506;28;20187;-44
2023/01/29 12:05:17;;;;;;;45.25;21.02;;;;;;;;;;5046641;28;20199;-44
2023/01/29 12:07:44;;;;;;;43.35;21.52;;;;;;;;;;5048617;28;20727;-44
2023/01/29 12:10:29;;;;;;;47.55;22.60;;;;;;;;;;5044861;28;20167;-45
2023/01/29 12:13:10;;;;;;;49.10;22.10;;;;;;;;;;5043836;28;20202;-44
2023/01/29 12:15:42;;;;;;;44.22;21.23;;;;;;;;;;5051797;28;20195;-45
2023/01/29 12:18:26;;;;;;;43.05;19.17;;;;;;;;;;5044784;28;20254;-43
2023/01/29 12:20:55;;;;;;;45.72;21.60;;;;;;;;;;5042182;28;20242;-42
2023/01/29 12:23:35;;;;;;;43.97;20.63;;;;;;;;;;5044224;28;20190;-42
2023/01/29 12:26:07;;;;;;;44.15;20.52;;;;;;;;;;5043559;28;20190;-43
2023/01/29 12:28:36;;;;;;;50.97;19.60;;;;;;;;;;5026376;28;20203;-43
2023/01/29 12:31:18;;;;;;;43.72;20.30;;;;;;;;;;5043348;28;20170;-41
2023/01/29 12:34:03;;;;;;;37.28;18.88;;;;;;;;;;5043204;28;20179;-43
2023/01/29 12:36:35;;;;;;;47.33;21.33;;;;;;;;;;5044689;28;20683;-42
2023/01/29 12:39:01;;;;;;;40.47;18.20;;;;;;;;;;5048397;28;20191;-43
2023/01/29 12:41:44;;;;;;;36.55;20.13;;;;;;;;;;5046383;28;20345;-44
2023/01/29 12:44:32;;;;;;;35.22;17.23;;;;;;;;;;5043135;28;20183;-42
2023/01/29 12:47:00;;;;;;;36.85;16.55;;;;;;;;;;5039868;28;20205;-42
2023/01/29 12:49:28;;;;;;;33.58;16.63;;;;;;;;;;5045685;28;20182;-44
2023/01/29 12:52:01;;;;;;;35.38;19.83;;;;;;;;;;5042839;28;20538;-43
2023/01/29 12:54:32;;;;;;;34.72;18.33;;;;;;;;;;5050602;28;20171;-43
2023/01/29 12:57:00;;;;;;;30.42;15.60;;;;;;;;;;5030654;28;20710;-43
2023/01/29 12:59:38;;;;;;;37.40;18.85;;;;;;;;;;5031155;28;20172;-42
2023/01/29 13:02:14;;;;;;;32.63;16.60;;;;;;;;;;5030758;28;20240;-43
2023/01/29 13:04:44;;;;;;;32.22;16.70;;;;;;;;;;5030981;28;20248;-42
2023/01/29 13:07:14;;;;;;;34.05;18.05;;;;;;;;;;5031815;28;20525;-43
2023/01/29 13:09:43;;;;;;;34.60;17.77;;;;;;;;;;5031802;28;20510;-43
2023/01/29 13:12:16;;;;;;;33.42;18.40;;;;;;;;;;5031636;28;20191;-44
2023/01/29 13:14:52;;;;;;;38.65;17.65;;;;;;;;;;5031082;28;20527;-43
2023/01/29 13:17:24;;;;;;;37.83;17.83;;;;;;;;;;5031473;28;20648;-43
2023/01/29 13:19:52;;;;;;;33.80;16.05;;;;;;;;;;5031072;28;20253;-45
2023/01/29 13:22:22;;;;;;;35.42;18.10;;;;;;;;;;5031664;28;20284;-45
2023/01/29 13:24:48;;;;;;;34.22;18.88;;;;;;;;;;5030959;28;20513;-45
2023/01/29 13:27:20;;;;;;;30.55;15.32;;;;;;;;;;5031471;28;20294;-44
2023/01/29 13:29:46;;;;;;;43.03;20.75;;;;;;;;;;5031399;28;20194;-41
2023/01/29 13:32:19;;;;;;;33.67;16.67;;;;;;;;;;5031340;28;20187;-40
2023/01/29 13:34:46;;;;;;;34.45;17.75;;;;;;;;;;5034591;28;20168;-41
2023/01/29 13:37:32;;;;;;;33.80;17.35;;;;;;;;;;5032680;28;20171;-42
2023/01/29 13:39:59;;;;;;;25.58;14.75;;;;;;;;;;5031524;28;20169;-42
2023/01/29 13:42:39;;;;;;;29.20;15.27;;;;;;;;;;5031240;28;20251;-43
2023/01/29 13:45:07;;;;;;;26.95;14.10;;;;;;;;;;5031057;28;20187;-43
2023/01/29 13:47:36;;;;;;;32.95;16.67;;;;;;;;;;5031004;28;20678;-43
2023/01/29 13:50:05;;;;;;;35.15;16.40;;;;;;;;;;5031234;28;20170;-44
2023/01/29 13:52:31;;;;;;;32.15;16.00;;;;;;;;;;5031117;28;20254;-43
2023/01/29 13:54:59;;;;;;;34.50;17.30;;;;;;;;;;5034289;28;20270;-44
2023/01/29 13:57:51;;;;;;;34.65;16.20;;;;;;;;;;5052181;28;20420;-43
2023/01/29 14:00:20;;;;;;;33.75;16.15;;;;;;;;;;5041860;28;20238;-41
2023/01/29 14:02:55;;;;;;;27.92;15.63;;;;;;;;;;5050964;28;20178;-44
2023/01/29 14:05:30;;;;;;;42.17;18.67;;;;;;;;;;5050433;28;20628;-41
2023/01/29 14:07:58;;;;;;;30.38;14.88;;;;;;;;;;5051002;28;20353;-43
2023/01/29 14:10:25;;;;;;;31.20;15.70;;;;;;;;;;5051042;28;20194;-46
2023/01/29 14:12:52;;;;;;;40.72;18.42;;;;;;;;;;5051031;28;20167;-44
2023/01/29 14:15:20;;;;;;;31.92;17.25;;;;;;;;;;5054612;28;20210;-43
2023/01/29 14:18:04;;;;;;;34.65;16.63;;;;;;;;;;5055109;28;20177;-43
2023/01/29 14:20:32;;;;;;;29.38;15.75;;;;;;;;;;5054621;28;20175;-42
2023/01/29 14:22:59;;;;;;;30.35;16.40;;;;;;;;;;5054794;28;20194;-42
2023/01/29 14:25:31;;;;;;;29.70;17.17;;;;;;;;;;5052666;28;20703;-42
2023/01/29 14:27:58;;;;;;;28.83;15.32;;;;;;;;;;5054391;28;20194;-42
2023/01/29 14:30:25;;;;;;;35.10;16.02;;;;;;;;;;5054335;28;20568;-44
2023/01/29 14:32:52;;;;;;;31.27;15.63;;;;;;;;;;5054329;28;20167;-43
2023/01/29 14:35:29;;;;;;;34.28;17.90;;;;;;;;;;5053901;28;20183;-43
2023/01/29 14:37:57;;;;;;;30.75;14.38;;;;;;;;;;5054123;28;20163;-43
2023/01/29 14:40:24;;;;;;;34.67;14.93;;;;;;;;;;5054079;28;20172;-43
2023/01/29 14:42:53;;;;;;;28.60;15.60;;;;;;;;;;5053867;28;20175;-43
2023/01/29 14:45:36;;;;;;;30.23;16.80;;;;;;;;;;5053627;28;20191;-43
2023/01/29 14:48:11;;;;;;;35.20;15.55;;;;;;;;;;5053617;28;20195;-43
2023/01/29 14:50:37;;;;;;;22.73;13.90;;;;;;;;;;5053993;28;20163;-44
2023/01/29 14:53:05;;;;;;;32.78;16.17;;;;;;;;;;5053953;28;20654;-41
2023/01/29 14:55:43;;;;;;;35.47;16.55;;;;;;;;;;5053454;28;20283;-44
2023/01/29 14:58:13;;;;;;;29.73;15.48;;;;;;;;;;5053527;28;20193;-41
2023/01/29 15:00:42;;;;;;;27.05;14.10;;;;;;;;;;5054020;28;20167;-42